sensor_id;sensor_type;location;lat;lon;timestamp;P1;durP1;ratioP1;P2;durP2;ratioP2
59302;SDS011;45074;52.764;6.896;2023-03-17T00:00:43;6.18;;;3.70;;
59302;SDS011;45074;52.764;6.896;2023-03-17T00:03:28;7.65;;;3.90;;
59302;SDS011;45074;52.764;6.896;2023-03-17T00:05:57;5.88;;;3.75;;
59302;SDS011;45074;52.764;6.896;2023-03-17T00:08:27;7.45;;;3.90;;
59302;SDS011;45074;52.764;6.896;2023-03-17T00:10:55;7.47;;;3.90;;
59302;SDS011;45074;52.764;6.896;2023-03-17T00:13:21;7.28;;;3.85;;
59302;SDS011;45074;52.764;6.896;2023-03-17T00:16:11;8.40;;;4.13;;
59302;SDS011;45074;52.764;6.896;2023-03-17T00:18:44;6.22;;;3.72;;
59302;SDS011;45074;52.764;6.896;2023-03-17T00:21:14;6.55;;;3.83;;
59302;SDS011;45074;52.764;6.896;2023-03-17T00:26:10;8.18;;;4.00;;
59302;SDS011;45074;52.764;6.896;2023-03-17T00:28:36;6.45;;;4.05;;
59302;SDS011;45074;52.764;6.896;2023-03-17T00:31:05;6.82;;;4.10;;
59302;SDS011;45074;52.764;6.896;2023-03-17T00:33:37;7.38;;;3.90;;
59302;SDS011;45074;52.764;6.896;2023-03-17T00:36:03;6.50;;;4.05;;
59302;SDS011;45074;52.764;6.896;2023-03-17T00:38:30;7.32;;;4.53;;
59302;SDS011;45074;52.764;6.896;2023-03-17T00:40:56;8.75;;;4.38;;
59302;SDS011;45074;52.764;6.896;2023-03-17T00:43:21;7.38;;;4.38;;
59302;SDS011;45074;52.764;6.896;2023-03-17T00:45:47;7.78;;;4.65;;
59302;SDS011;45074;52.764;6.896;2023-03-17T00:48:16;7.25;;;4.00;;
59302;SDS011;45074;52.764;6.896;2023-03-17T00:50:46;7.57;;;4.28;;
59302;SDS011;45074;52.764;6.896;2023-03-17T00:53:17;7.68;;;4.28;;
59302;SDS011;45074;52.764;6.896;2023-03-17T00:55:45;8.60;;;4.65;;
59302;SDS011;45074;52.764;6.896;2023-03-17T01:00:43;8.57;;;4.55;;
59302;SDS011;45074;52.764;6.896;2023-03-17T01:03:10;7.28;;;4.53;;
59302;SDS011;45074;52.764;6.896;2023-03-17T01:05:37;7.78;;;5.05;;
59302;SDS011;45074;52.764;6.896;2023-03-17T01:08:04;8.65;;;4.60;;
59302;SDS011;45074;52.764;6.896;2023-03-17T01:10:29;7.97;;;4.38;;
59302;SDS011;45074;52.764;6.896;2023-03-17T01:12:57;8.43;;;4.65;;
59302;SDS011;45074;52.764;6.896;2023-03-17T01:15:23;7.63;;;4.63;;
59302;SDS011;45074;52.764;6.896;2023-03-17T01:17:53;7.72;;;4.68;;
59302;SDS011;45074;52.764;6.896;2023-03-17T01:20:20;8.43;;;4.40;;
59302;SDS011;45074;52.764;6.896;2023-03-17T01:22:48;8.07;;;4.80;;
59302;SDS011;45074;52.764;6.896;2023-03-17T01:25:14;7.75;;;4.80;;
59302;SDS011;45074;52.764;6.896;2023-03-17T01:27:41;7.93;;;4.85;;
59302;SDS011;45074;52.764;6.896;2023-03-17T01:30:51;8.90;;;4.80;;
59302;SDS011;45074;52.764;6.896;2023-03-17T01:33:03;8.65;;;5.13;;
59302;SDS011;45074;52.764;6.896;2023-03-17T01:35:30;9.85;;;5.00;;
59302;SDS011;45074;52.764;6.896;2023-03-17T01:37:56;9.30;;;5.30;;
59302;SDS011;45074;52.764;6.896;2023-03-17T01:40:27;8.80;;;5.20;;
59302;SDS011;45074;52.764;6.896;2023-03-17T01:48:41;7.72;;;4.85;;
59302;SDS011;45074;52.764;6.896;2023-03-17T01:54:21;8.48;;;5.25;;
59302;SDS011;45074;52.764;6.896;2023-03-17T01:57:19;8.27;;;5.32;;
59302;SDS011;45074;52.764;6.896;2023-03-17T02:00:01;9.75;;;5.72;;
59302;SDS011;45074;52.764;6.896;2023-03-17T02:02:30;8.88;;;5.50;;
59302;SDS011;45074;52.764;6.896;2023-03-17T02:04:59;8.25;;;5.55;;
59302;SDS011;45074;52.764;6.896;2023-03-17T02:07:27;9.15;;;5.93;;
59302;SDS011;45074;52.764;6.896;2023-03-17T02:09:54;8.35;;;5.20;;
59302;SDS011;45074;52.764;6.896;2023-03-17T02:12:21;8.73;;;5.70;;
59302;SDS011;45074;52.764;6.896;2023-03-17T02:14:48;8.65;;;5.38;;
59302;SDS011;45074;52.764;6.896;2023-03-17T02:17:15;8.93;;;5.70;;
59302;SDS011;45074;52.764;6.896;2023-03-17T02:19:42;8.48;;;5.22;;
59302;SDS011;45074;52.764;6.896;2023-03-17T02:22:08;10.90;;;5.60;;
59302;SDS011;45074;52.764;6.896;2023-03-17T02:27:18;9.32;;;6.00;;
59302;SDS011;45074;52.764;6.896;2023-03-17T02:29:57;8.68;;;5.43;;
59302;SDS011;45074;52.764;6.896;2023-03-17T02:32:23;9.35;;;5.85;;
59302;SDS011;45074;52.764;6.896;2023-03-17T02:34:49;9.48;;;5.82;;
59302;SDS011;45074;52.764;6.896;2023-03-17T02:37:16;10.38;;;6.13;;
59302;SDS011;45074;52.764;6.896;2023-03-17T02:39:43;8.23;;;5.25;;
59302;SDS011;45074;52.764;6.896;2023-03-17T02:42:09;9.50;;;5.53;;
59302;SDS011;45074;52.764;6.896;2023-03-17T02:44:36;9.43;;;5.97;;
59302;SDS011;45074;52.764;6.896;2023-03-17T02:47:02;9.65;;;5.80;;
59302;SDS011;45074;52.764;6.896;2023-03-17T02:49:29;8.88;;;5.43;;
59302;SDS011;45074;52.764;6.896;2023-03-17T02:51:55;10.85;;;5.70;;
59302;SDS011;45074;52.764;6.896;2023-03-17T02:54:21;9.48;;;5.95;;
59302;SDS011;45074;52.764;6.896;2023-03-17T02:56:47;9.98;;;6.25;;
59302;SDS011;45074;52.764;6.896;2023-03-17T02:59:13;8.50;;;5.55;;
59302;SDS011;45074;52.764;6.896;2023-03-17T03:01:40;8.57;;;5.68;;
59302;SDS011;45074;52.764;6.896;2023-03-17T03:04:06;9.90;;;5.47;;
59302;SDS011;45074;52.764;6.896;2023-03-17T03:06:32;8.23;;;5.60;;
59302;SDS011;45074;52.764;6.896;2023-03-17T03:08:58;9.40;;;5.63;;
59302;SDS011;45074;52.764;6.896;2023-03-17T03:11:24;8.25;;;5.55;;
59302;SDS011;45074;52.764;6.896;2023-03-17T03:13:50;9.25;;;5.82;;
59302;SDS011;45074;52.764;6.896;2023-03-17T03:16:16;8.75;;;5.63;;
59302;SDS011;45074;52.764;6.896;2023-03-17T03:18:42;7.72;;;4.90;;
59302;SDS011;45074;52.764;6.896;2023-03-17T03:21:08;9.15;;;5.72;;
59302;SDS011;45074;52.764;6.896;2023-03-17T03:23:34;8.32;;;5.30;;
59302;SDS011;45074;52.764;6.896;2023-03-17T03:26:00;8.85;;;5.30;;
59302;SDS011;45074;52.764;6.896;2023-03-17T03:28:26;9.80;;;5.53;;
59302;SDS011;45074;52.764;6.896;2023-03-17T03:30:52;8.52;;;5.63;;
59302;SDS011;45074;52.764;6.896;2023-03-17T03:33:18;8.80;;;5.43;;
59302;SDS011;45074;52.764;6.896;2023-03-17T03:35:44;9.75;;;5.60;;
59302;SDS011;45074;52.764;6.896;2023-03-17T03:38:11;10.18;;;5.75;;
59302;SDS011;45074;52.764;6.896;2023-03-17T03:40:37;9.55;;;6.10;;
59302;SDS011;45074;52.764;6.896;2023-03-17T03:43:03;9.07;;;5.22;;
59302;SDS011;45074;52.764;6.896;2023-03-17T03:45:29;8.77;;;5.15;;
59302;SDS011;45074;52.764;6.896;2023-03-17T03:47:55;9.43;;;5.72;;
59302;SDS011;45074;52.764;6.896;2023-03-17T03:50:21;8.02;;;5.47;;
59302;SDS011;45074;52.764;6.896;2023-03-17T03:52:48;9.20;;;5.53;;
59302;SDS011;45074;52.764;6.896;2023-03-17T03:55:14;9.68;;;5.43;;
59302;SDS011;45074;52.764;6.896;2023-03-17T03:57:40;8.60;;;5.22;;
59302;SDS011;45074;52.764;6.896;2023-03-17T04:00:06;8.10;;;5.35;;
59302;SDS011;45074;52.764;6.896;2023-03-17T04:02:33;7.93;;;5.43;;
59302;SDS011;45074;52.764;6.896;2023-03-17T04:04:59;9.63;;;5.38;;
59302;SDS011;45074;52.764;6.896;2023-03-17T04:07:25;9.75;;;5.60;;
59302;SDS011;45074;52.764;6.896;2023-03-17T04:09:51;8.40;;;5.38;;
59302;SDS011;45074;52.764;6.896;2023-03-17T04:12:17;9.77;;;5.60;;
59302;SDS011;45074;52.764;6.896;2023-03-17T04:14:43;8.52;;;5.35;;
59302;SDS011;45074;52.764;6.896;2023-03-17T04:17:10;8.40;;;5.30;;
59302;SDS011;45074;52.764;6.896;2023-03-17T04:19:36;9.73;;;5.63;;
59302;SDS011;45074;52.764;6.896;2023-03-17T04:22:02;8.23;;;5.47;;
59302;SDS011;45074;52.764;6.896;2023-03-17T04:24:28;8.60;;;5.47;;
59302;SDS011;45074;52.764;6.896;2023-03-17T04:26:54;8.23;;;5.25;;
59302;SDS011;45074;52.764;6.896;2023-03-17T04:29:21;8.82;;;5.43;;
59302;SDS011;45074;52.764;6.896;2023-03-17T04:31:46;8.75;;;5.20;;
59302;SDS011;45074;52.764;6.896;2023-03-17T04:34:13;8.80;;;5.18;;
59302;SDS011;45074;52.764;6.896;2023-03-17T04:36:41;9.02;;;5.22;;
59302;SDS011;45074;52.764;6.896;2023-03-17T04:39:07;8.65;;;5.18;;
59302;SDS011;45074;52.764;6.896;2023-03-17T04:41:33;9.55;;;5.30;;
59302;SDS011;45074;52.764;6.896;2023-03-17T04:43:59;8.98;;;4.97;;
59302;SDS011;45074;52.764;6.896;2023-03-17T04:46:25;10.35;;;5.18;;
59302;SDS011;45074;52.764;6.896;2023-03-17T04:48:51;9.40;;;5.38;;
59302;SDS011;45074;52.764;6.896;2023-03-17T04:51:17;8.23;;;5.28;;
59302;SDS011;45074;52.764;6.896;2023-03-17T04:53:43;10.95;;;5.50;;
59302;SDS011;45074;52.764;6.896;2023-03-17T04:56:10;8.80;;;5.20;;
59302;SDS011;45074;52.764;6.896;2023-03-17T04:58:36;9.27;;;5.50;;
59302;SDS011;45074;52.764;6.896;2023-03-17T05:01:02;7.63;;;5.18;;
59302;SDS011;45074;52.764;6.896;2023-03-17T05:03:29;8.05;;;4.72;;
59302;SDS011;45074;52.764;6.896;2023-03-17T05:05:56;8.70;;;5.00;;
59302;SDS011;45074;52.764;6.896;2023-03-17T05:08:23;8.25;;;5.20;;
59302;SDS011;45074;52.764;6.896;2023-03-17T05:10:49;8.82;;;5.47;;
59302;SDS011;45074;52.764;6.896;2023-03-17T05:13:15;8.30;;;4.80;;
59302;SDS011;45074;52.764;6.896;2023-03-17T05:15:45;7.53;;;4.78;;
59302;SDS011;45074;52.764;6.896;2023-03-17T05:18:11;8.20;;;4.88;;
59302;SDS011;45074;52.764;6.896;2023-03-17T05:20:37;8.05;;;4.88;;
59302;SDS011;45074;52.764;6.896;2023-03-17T05:23:03;7.70;;;5.05;;
59302;SDS011;45074;52.764;6.896;2023-03-17T05:25:29;8.23;;;5.05;;
59302;SDS011;45074;52.764;6.896;2023-03-17T05:27:55;9.40;;;5.05;;
59302;SDS011;45074;52.764;6.896;2023-03-17T05:30:22;7.05;;;4.60;;
59302;SDS011;45074;52.764;6.896;2023-03-17T05:32:49;8.57;;;4.72;;
59302;SDS011;45074;52.764;6.896;2023-03-17T05:35:15;8.90;;;4.85;;
59302;SDS011;45074;52.764;6.896;2023-03-17T05:37:42;7.53;;;5.00;;
59302;SDS011;45074;52.764;6.896;2023-03-17T05:40:09;7.68;;;4.72;;
59302;SDS011;45074;52.764;6.896;2023-03-17T05:42:35;10.75;;;4.80;;
59302;SDS011;45074;52.764;6.896;2023-03-17T05:45:01;8.18;;;4.70;;
59302;SDS011;45074;52.764;6.896;2023-03-17T05:47:26;7.22;;;4.57;;
59302;SDS011;45074;52.764;6.896;2023-03-17T05:49:52;9.05;;;4.97;;
59302;SDS011;45074;52.764;6.896;2023-03-17T05:52:18;6.63;;;4.40;;
59302;SDS011;45074;52.764;6.896;2023-03-17T05:54:44;8.75;;;4.68;;
59302;SDS011;45074;52.764;6.896;2023-03-17T05:57:12;8.50;;;4.63;;
59302;SDS011;45074;52.764;6.896;2023-03-17T05:59:39;7.10;;;4.60;;
59302;SDS011;45074;52.764;6.896;2023-03-17T06:02:05;7.43;;;4.15;;
59302;SDS011;45074;52.764;6.896;2023-03-17T06:04:31;8.90;;;4.60;;
59302;SDS011;45074;52.764;6.896;2023-03-17T06:06:57;8.05;;;4.60;;
59302;SDS011;45074;52.764;6.896;2023-03-17T06:09:23;7.85;;;4.60;;
59302;SDS011;45074;52.764;6.896;2023-03-17T06:11:48;7.32;;;4.30;;
59302;SDS011;45074;52.764;6.896;2023-03-17T06:14:14;7.93;;;4.60;;
59302;SDS011;45074;52.764;6.896;2023-03-17T06:16:40;9.18;;;4.75;;
59302;SDS011;45074;52.764;6.896;2023-03-17T06:19:06;7.88;;;4.75;;
59302;SDS011;45074;52.764;6.896;2023-03-17T06:21:31;9.95;;;4.80;;
59302;SDS011;45074;52.764;6.896;2023-03-17T06:23:57;7.85;;;4.60;;
59302;SDS011;45074;52.764;6.896;2023-03-17T06:26:22;7.97;;;4.35;;
59302;SDS011;45074;52.764;6.896;2023-03-17T06:28:50;7.40;;;4.70;;
59302;SDS011;45074;52.764;6.896;2023-03-17T06:31:15;8.20;;;4.40;;
59302;SDS011;45074;52.764;6.896;2023-03-17T06:33:41;8.55;;;4.60;;
59302;SDS011;45074;52.764;6.896;2023-03-17T06:36:08;8.57;;;4.97;;
59302;SDS011;45074;52.764;6.896;2023-03-17T06:38:33;8.77;;;4.30;;
59302;SDS011;45074;52.764;6.896;2023-03-17T06:40:59;7.50;;;4.07;;
59302;SDS011;45074;52.764;6.896;2023-03-17T06:43:25;7.45;;;4.18;;
59302;SDS011;45074;52.764;6.896;2023-03-17T06:45:50;8.23;;;4.05;;
59302;SDS011;45074;52.764;6.896;2023-03-17T06:48:16;7.20;;;4.50;;
59302;SDS011;45074;52.764;6.896;2023-03-17T06:50:43;8.13;;;4.15;;
59302;SDS011;45074;52.764;6.896;2023-03-17T06:53:11;7.45;;;4.20;;
59302;SDS011;45074;52.764;6.896;2023-03-17T06:55:37;7.35;;;4.25;;
59302;SDS011;45074;52.764;6.896;2023-03-17T06:58:03;9.32;;;4.57;;
59302;SDS011;45074;52.764;6.896;2023-03-17T07:00:29;7.93;;;4.30;;
59302;SDS011;45074;52.764;6.896;2023-03-17T07:02:55;7.97;;;4.13;;
59302;SDS011;45074;52.764;6.896;2023-03-17T07:05:20;7.07;;;4.00;;
59302;SDS011;45074;52.764;6.896;2023-03-17T07:07:46;7.47;;;3.90;;
59302;SDS011;45074;52.764;6.896;2023-03-17T07:10:13;8.43;;;4.18;;
59302;SDS011;45074;52.764;6.896;2023-03-17T07:12:40;8.57;;;3.90;;
59302;SDS011;45074;52.764;6.896;2023-03-17T07:15:06;7.35;;;3.95;;
59302;SDS011;45074;52.764;6.896;2023-03-17T07:17:33;7.50;;;4.18;;
59302;SDS011;45074;52.764;6.896;2023-03-17T07:19:59;6.97;;;4.25;;
59302;SDS011;45074;52.764;6.896;2023-03-17T07:22:25;7.97;;;4.10;;
59302;SDS011;45074;52.764;6.896;2023-03-17T07:24:52;8.52;;;4.07;;
59302;SDS011;45074;52.764;6.896;2023-03-17T07:27:18;8.20;;;3.88;;
59302;SDS011;45074;52.764;6.896;2023-03-17T07:29:45;8.25;;;4.40;;
59302;SDS011;45074;52.764;6.896;2023-03-17T07:32:11;6.78;;;3.80;;
59302;SDS011;45074;52.764;6.896;2023-03-17T07:34:37;7.32;;;4.45;;
59302;SDS011;45074;52.764;6.896;2023-03-17T07:37:02;8.48;;;4.10;;
59302;SDS011;45074;52.764;6.896;2023-03-17T07:39:29;7.28;;;4.25;;
59302;SDS011;45074;52.764;6.896;2023-03-17T07:41:55;7.57;;;4.07;;
59302;SDS011;45074;52.764;6.896;2023-03-17T07:44:21;6.75;;;4.18;;
59302;SDS011;45074;52.764;6.896;2023-03-17T07:46:49;6.38;;;4.15;;
59302;SDS011;45074;52.764;6.896;2023-03-17T07:49:15;6.80;;;4.05;;
59302;SDS011;45074;52.764;6.896;2023-03-17T07:51:41;7.25;;;4.20;;
59302;SDS011;45074;52.764;6.896;2023-03-17T07:54:11;9.52;;;4.07;;
59302;SDS011;45074;52.764;6.896;2023-03-17T07:56:37;7.88;;;4.28;;
59302;SDS011;45074;52.764;6.896;2023-03-17T07:59:04;6.97;;;3.95;;
59302;SDS011;45074;52.764;6.896;2023-03-17T08:01:31;7.22;;;4.03;;
59302;SDS011;45074;52.764;6.896;2023-03-17T08:03:57;7.35;;;4.00;;
59302;SDS011;45074;52.764;6.896;2023-03-17T08:06:23;7.05;;;3.65;;
59302;SDS011;45074;52.764;6.896;2023-03-17T08:08:52;6.60;;;3.90;;
59302;SDS011;45074;52.764;6.896;2023-03-17T08:11:18;8.30;;;3.83;;
59302;SDS011;45074;52.764;6.896;2023-03-17T08:13:44;7.97;;;4.07;;
59302;SDS011;45074;52.764;6.896;2023-03-17T08:16:11;6.43;;;4.00;;
59302;SDS011;45074;52.764;6.896;2023-03-17T08:18:37;6.88;;;4.40;;
59302;SDS011;45074;52.764;6.896;2023-03-17T08:21:03;11.55;;;6.47;;
59302;SDS011;45074;52.764;6.896;2023-03-17T08:23:29;8.95;;;5.95;;
59302;SDS011;45074;52.764;6.896;2023-03-17T08:25:59;8.90;;;5.30;;
59302;SDS011;45074;52.764;6.896;2023-03-17T08:28:26;6.97;;;4.07;;
59302;SDS011;45074;52.764;6.896;2023-03-17T08:30:52;7.55;;;4.10;;
59302;SDS011;45074;52.764;6.896;2023-03-17T08:33:18;7.40;;;3.83;;
59302;SDS011;45074;52.764;6.896;2023-03-17T08:35:44;7.22;;;4.05;;
59302;SDS011;45074;52.764;6.896;2023-03-17T08:38:11;6.90;;;3.58;;
59302;SDS011;45074;52.764;6.896;2023-03-17T08:40:37;5.82;;;3.85;;
59302;SDS011;45074;52.764;6.896;2023-03-17T08:43:04;6.85;;;4.00;;
59302;SDS011;45074;52.764;6.896;2023-03-17T08:45:30;7.20;;;4.00;;
59302;SDS011;45074;52.764;6.896;2023-03-17T08:47:56;7.18;;;4.07;;
59302;SDS011;45074;52.764;6.896;2023-03-17T08:50:22;7.53;;;3.53;;
59302;SDS011;45074;52.764;6.896;2023-03-17T08:52:49;7.43;;;3.95;;
59302;SDS011;45074;52.764;6.896;2023-03-17T08:55:16;7.47;;;3.67;;
59302;SDS011;45074;52.764;6.896;2023-03-17T08:57:42;6.60;;;3.42;;
59302;SDS011;45074;52.764;6.896;2023-03-17T09:00:09;7.32;;;3.55;;
59302;SDS011;45074;52.764;6.896;2023-03-17T09:02:37;7.82;;;3.80;;
59302;SDS011;45074;52.764;6.896;2023-03-17T09:05:04;7.57;;;3.92;;
59302;SDS011;45074;52.764;6.896;2023-03-17T09:07:31;6.90;;;3.70;;
59302;SDS011;45074;52.764;6.896;2023-03-17T09:09:58;7.15;;;4.07;;
59302;SDS011;45074;52.764;6.896;2023-03-17T09:12:24;7.28;;;3.42;;
59302;SDS011;45074;52.764;6.896;2023-03-17T09:14:50;6.43;;;3.53;;
59302;SDS011;45074;52.764;6.896;2023-03-17T09:17:16;7.60;;;4.00;;
59302;SDS011;45074;52.764;6.896;2023-03-17T09:19:42;6.97;;;3.55;;
59302;SDS011;45074;52.764;6.896;2023-03-17T09:22:12;7.95;;;3.80;;
59302;SDS011;45074;52.764;6.896;2023-03-17T09:24:39;9.77;;;3.78;;
59302;SDS011;45074;52.764;6.896;2023-03-17T09:27:05;7.53;;;3.92;;
59302;SDS011;45074;52.764;6.896;2023-03-17T09:29:31;6.93;;;3.55;;
59302;SDS011;45074;52.764;6.896;2023-03-17T09:31:57;6.55;;;3.60;;
59302;SDS011;45074;52.764;6.896;2023-03-17T09:34:23;6.97;;;3.80;;
59302;SDS011;45074;52.764;6.896;2023-03-17T09:36:50;6.57;;;3.40;;
59302;SDS011;45074;52.764;6.896;2023-03-17T09:39:16;7.95;;;3.75;;
59302;SDS011;45074;52.764;6.896;2023-03-17T09:41:57;6.63;;;3.70;;
59302;SDS011;45074;52.764;6.896;2023-03-17T09:45:26;8.75;;;3.95;;
59302;SDS011;45074;52.764;6.896;2023-03-17T09:47:59;7.40;;;4.03;;
59302;SDS011;45074;52.764;6.896;2023-03-17T09:50:27;9.65;;;4.72;;
59302;SDS011;45074;52.764;6.896;2023-03-17T09:52:57;8.68;;;3.80;;
59302;SDS011;45074;52.764;6.896;2023-03-17T09:55:28;8.45;;;3.83;;
59302;SDS011;45074;52.764;6.896;2023-03-17T09:57:55;7.88;;;3.72;;
59302;SDS011;45074;52.764;6.896;2023-03-17T10:00:22;8.90;;;3.90;;
59302;SDS011;45074;52.764;6.896;2023-03-17T10:02:51;7.32;;;3.83;;
59302;SDS011;45074;52.764;6.896;2023-03-17T10:05:19;7.82;;;4.38;;
59302;SDS011;45074;52.764;6.896;2023-03-17T10:16:19;8.38;;;4.20;;
59302;SDS011;45074;52.764;6.896;2023-03-17T10:21:29;7.95;;;3.97;;
59302;SDS011;45074;52.764;6.896;2023-03-17T10:23:57;9.07;;;5.00;;
59302;SDS011;45074;52.764;6.896;2023-03-17T10:26:36;8.52;;;4.28;;
59302;SDS011;45074;52.764;6.896;2023-03-17T10:29:13;8.57;;;5.20;;
59302;SDS011;45074;52.764;6.896;2023-03-17T10:31:46;7.70;;;4.93;;
59302;SDS011;45074;52.764;6.896;2023-03-17T10:36:43;9.88;;;4.85;;
59302;SDS011;45074;52.764;6.896;2023-03-17T10:39:20;8.48;;;4.43;;
59302;SDS011;45074;52.764;6.896;2023-03-17T10:41:53;8.60;;;4.97;;
59302;SDS011;45074;52.764;6.896;2023-03-17T10:44:41;7.85;;;4.38;;
59302;SDS011;45074;52.764;6.896;2023-03-17T10:47:19;8.40;;;4.57;;
59302;SDS011;45074;52.764;6.896;2023-03-17T10:50:15;8.48;;;4.72;;
59302;SDS011;45074;52.764;6.896;2023-03-17T10:52:40;10.93;;;4.47;;
59302;SDS011;45074;52.764;6.896;2023-03-17T10:55:07;8.05;;;4.93;;
59302;SDS011;45074;52.764;6.896;2023-03-17T10:57:37;10.60;;;5.30;;
59302;SDS011;45074;52.764;6.896;2023-03-17T11:00:13;9.05;;;4.95;;
59302;SDS011;45074;52.764;6.896;2023-03-17T11:03:03;8.45;;;4.80;;
59302;SDS011;45074;52.764;6.896;2023-03-17T11:05:39;9.15;;;4.40;;
59302;SDS011;45074;52.764;6.896;2023-03-17T11:08:06;9.13;;;4.68;;
59302;SDS011;45074;52.764;6.896;2023-03-17T11:10:34;9.27;;;4.43;;
59302;SDS011;45074;52.764;6.896;2023-03-17T11:13:02;8.25;;;5.40;;
59302;SDS011;45074;52.764;6.896;2023-03-17T11:15:32;9.48;;;4.78;;
59302;SDS011;45074;52.764;6.896;2023-03-17T11:18:02;9.65;;;5.10;;
59302;SDS011;45074;52.764;6.896;2023-03-17T11:25:43;9.48;;;4.68;;
59302;SDS011;45074;52.764;6.896;2023-03-17T11:28:14;7.95;;;4.50;;
59302;SDS011;45074;52.764;6.896;2023-03-17T11:36:02;9.48;;;4.32;;
59302;SDS011;45074;52.764;6.896;2023-03-17T11:38:36;8.27;;;4.38;;
59302;SDS011;45074;52.764;6.896;2023-03-17T11:41:31;8.88;;;4.90;;
59302;SDS011;45074;52.764;6.896;2023-03-17T11:47:07;9.68;;;4.63;;
59302;SDS011;45074;52.764;6.896;2023-03-17T11:49:46;9.85;;;4.57;;
59302;SDS011;45074;52.764;6.896;2023-03-17T11:52:57;8.82;;;4.70;;
59302;SDS011;45074;52.764;6.896;2023-03-17T11:55:52;8.65;;;4.70;;
59302;SDS011;45074;52.764;6.896;2023-03-17T11:58:34;10.57;;;4.75;;
59302;SDS011;45074;52.764;6.896;2023-03-17T12:01:04;9.30;;;5.00;;
59302;SDS011;45074;52.764;6.896;2023-03-17T12:03:46;10.30;;;4.97;;
59302;SDS011;45074;52.764;6.896;2023-03-17T12:06:27;8.70;;;4.60;;
59302;SDS011;45074;52.764;6.896;2023-03-17T12:09:00;10.57;;;5.45;;
59302;SDS011;45074;52.764;6.896;2023-03-17T12:11:33;8.07;;;4.30;;
59302;SDS011;45074;52.764;6.896;2023-03-17T12:14:13;8.55;;;4.93;;
59302;SDS011;45074;52.764;6.896;2023-03-17T12:17:58;9.05;;;4.72;;
59302;SDS011;45074;52.764;6.896;2023-03-17T12:22:38;8.90;;;5.18;;
59302;SDS011;45074;52.764;6.896;2023-03-17T12:25:26;9.93;;;5.22;;
59302;SDS011;45074;52.764;6.896;2023-03-17T12:28:04;9.35;;;5.55;;
59302;SDS011;45074;52.764;6.896;2023-03-17T12:30:48;11.50;;;6.00;;
59302;SDS011;45074;52.764;6.896;2023-03-17T12:33:16;9.10;;;5.50;;
59302;SDS011;45074;52.764;6.896;2023-03-17T12:35:55;9.85;;;6.00;;
59302;SDS011;45074;52.764;6.896;2023-03-17T12:38:25;9.57;;;5.57;;
59302;SDS011;45074;52.764;6.896;2023-03-17T12:46:27;8.30;;;5.53;;
59302;SDS011;45074;52.764;6.896;2023-03-17T12:49:28;10.13;;;5.47;;
59302;SDS011;45074;52.764;6.896;2023-03-17T12:55:22;9.70;;;5.30;;
59302;SDS011;45074;52.764;6.896;2023-03-17T13:00:29;9.20;;;5.35;;
59302;SDS011;45074;52.764;6.896;2023-03-17T13:05:57;10.48;;;5.88;;
59302;SDS011;45074;52.764;6.896;2023-03-17T13:08:30;11.10;;;6.13;;
59302;SDS011;45074;52.764;6.896;2023-03-17T13:11:14;10.38;;;5.95;;
59302;SDS011;45074;52.764;6.896;2023-03-17T13:19:14;10.02;;;5.68;;
59302;SDS011;45074;52.764;6.896;2023-03-17T13:29:25;8.35;;;5.35;;
59302;SDS011;45074;52.764;6.896;2023-03-17T13:31:51;9.38;;;5.70;;
59302;SDS011;45074;52.764;6.896;2023-03-17T13:34:18;9.52;;;5.22;;
59302;SDS011;45074;52.764;6.896;2023-03-17T13:36:53;9.23;;;5.32;;
59302;SDS011;45074;52.764;6.896;2023-03-17T13:42:18;9.80;;;5.35;;
59302;SDS011;45074;52.764;6.896;2023-03-17T13:47:30;9.35;;;5.30;;
59302;SDS011;45074;52.764;6.896;2023-03-17T13:50:12;9.38;;;5.45;;
59302;SDS011;45074;52.764;6.896;2023-03-17T13:53:06;8.25;;;5.72;;
59302;SDS011;45074;52.764;6.896;2023-03-17T13:55:35;10.50;;;5.80;;
59302;SDS011;45074;52.764;6.896;2023-03-17T14:00:32;9.70;;;6.10;;
59302;SDS011;45074;52.764;6.896;2023-03-17T14:03:09;10.30;;;5.63;;
59302;SDS011;45074;52.764;6.896;2023-03-17T14:05:48;9.30;;;5.45;;
59302;SDS011;45074;52.764;6.896;2023-03-17T14:08:17;10.10;;;5.60;;
59302;SDS011;45074;52.764;6.896;2023-03-17T14:10:57;8.88;;;5.70;;
59302;SDS011;45074;52.764;6.896;2023-03-17T14:13:26;10.00;;;5.60;;
59302;SDS011;45074;52.764;6.896;2023-03-17T14:18:49;9.40;;;5.65;;
59302;SDS011;45074;52.764;6.896;2023-03-17T14:21:21;9.55;;;5.68;;
59302;SDS011;45074;52.764;6.896;2023-03-17T14:23:55;9.57;;;5.78;;
59302;SDS011;45074;52.764;6.896;2023-03-17T14:26:26;9.93;;;5.60;;
59302;SDS011;45074;52.764;6.896;2023-03-17T14:28:57;9.57;;;5.38;;
59302;SDS011;45074;52.764;6.896;2023-03-17T14:31:25;10.05;;;5.93;;
59302;SDS011;45074;52.764;6.896;2023-03-17T14:33:58;11.65;;;5.95;;
59302;SDS011;45074;52.764;6.896;2023-03-17T14:36:26;8.10;;;5.07;;
59302;SDS011;45074;52.764;6.896;2023-03-17T14:38:53;8.95;;;5.50;;
59302;SDS011;45074;52.764;6.896;2023-03-17T14:41:23;9.52;;;5.43;;
59302;SDS011;45074;52.764;6.896;2023-03-17T14:46:22;11.73;;;5.70;;
59302;SDS011;45074;52.764;6.896;2023-03-17T14:48:56;11.52;;;5.53;;
59302;SDS011;45074;52.764;6.896;2023-03-17T14:51:29;9.90;;;5.60;;
59302;SDS011;45074;52.764;6.896;2023-03-17T14:54:00;9.30;;;5.05;;
59302;SDS011;45074;52.764;6.896;2023-03-17T14:56:35;10.60;;;6.00;;
59302;SDS011;45074;52.764;6.896;2023-03-17T14:59:16;9.15;;;5.60;;
59302;SDS011;45074;52.764;6.896;2023-03-17T15:01:54;10.63;;;5.75;;
59302;SDS011;45074;52.764;6.896;2023-03-17T15:04:29;9.25;;;5.88;;
59302;SDS011;45074;52.764;6.896;2023-03-17T15:09:33;9.57;;;5.35;;
59302;SDS011;45074;52.764;6.896;2023-03-17T15:12:12;11.63;;;6.25;;
59302;SDS011;45074;52.764;6.896;2023-03-17T15:14:42;9.20;;;6.05;;
59302;SDS011;45074;52.764;6.896;2023-03-17T15:17:15;11.48;;;6.18;;
59302;SDS011;45074;52.764;6.896;2023-03-17T15:19:53;10.60;;;6.30;;
59302;SDS011;45074;52.764;6.896;2023-03-17T15:22:26;10.05;;;6.05;;
59302;SDS011;45074;52.764;6.896;2023-03-17T15:25:00;10.65;;;6.20;;
59302;SDS011;45074;52.764;6.896;2023-03-17T15:27:38;9.63;;;5.85;;
59302;SDS011;45074;52.764;6.896;2023-03-17T15:30:04;9.68;;;5.75;;
59302;SDS011;45074;52.764;6.896;2023-03-17T15:32:31;9.82;;;5.93;;
59302;SDS011;45074;52.764;6.896;2023-03-17T15:34:57;10.07;;;5.90;;
59302;SDS011;45074;52.764;6.896;2023-03-17T15:39:53;9.82;;;5.93;;
59302;SDS011;45074;52.764;6.896;2023-03-17T15:42:20;9.73;;;5.90;;
59302;SDS011;45074;52.764;6.896;2023-03-17T15:44:52;9.48;;;5.70;;
59302;SDS011;45074;52.764;6.896;2023-03-17T15:47:19;10.27;;;6.00;;
59302;SDS011;45074;52.764;6.896;2023-03-17T15:49:46;11.75;;;6.03;;
59302;SDS011;45074;52.764;6.896;2023-03-17T15:54:41;12.77;;;7.30;;
59302;SDS011;45074;52.764;6.896;2023-03-17T15:57:09;13.82;;;7.70;;
59302;SDS011;45074;52.764;6.896;2023-03-17T15:59:36;12.05;;;6.57;;
59302;SDS011;45074;52.764;6.896;2023-03-17T16:02:02;10.63;;;6.50;;
59302;SDS011;45074;52.764;6.896;2023-03-17T16:04:28;12.82;;;6.88;;
59302;SDS011;45074;52.764;6.896;2023-03-17T16:06:54;11.35;;;6.72;;
59302;SDS011;45074;52.764;6.896;2023-03-17T16:09:20;10.35;;;6.80;;
59302;SDS011;45074;52.764;6.896;2023-03-17T16:11:46;10.43;;;6.38;;
59302;SDS011;45074;52.764;6.896;2023-03-17T16:14:12;12.27;;;6.80;;
59302;SDS011;45074;52.764;6.896;2023-03-17T16:16:38;12.48;;;6.30;;
59302;SDS011;45074;52.764;6.896;2023-03-17T16:19:09;11.95;;;6.45;;
59302;SDS011;45074;52.764;6.896;2023-03-17T16:21:42;10.05;;;5.63;;
59302;SDS011;45074;52.764;6.896;2023-03-17T16:24:18;10.65;;;5.80;;
59302;SDS011;45074;52.764;6.896;2023-03-17T16:26:45;10.52;;;6.57;;
59302;SDS011;45074;52.764;6.896;2023-03-17T16:29:12;11.90;;;6.35;;
59302;SDS011;45074;52.764;6.896;2023-03-17T16:31:38;9.85;;;6.00;;
59302;SDS011;45074;52.764;6.896;2023-03-17T16:34:12;11.10;;;6.07;;